Time;durP1;ratioP1;P1;durP2;ratioP2;P2;SDS_P1;SDS_P2;PMS_P1;PMS_P2;Temp;Humidity;BMP_temperature;BMP_pressure;BME280_temperature;BME280_humidity;BME280_pressure;Samples;Min_cycle;Max_cycle;Signal;HPM_P1;HPM_P2
2022/02/21 00:00:17;;;;;;;5.50;3.50;;;;;;;7.57;70.71;98714.57;108864;1264;23250;-77
2022/02/21 00:03:15;;;;;;;5.10;2.70;;;;;;;7.50;70.84;98705.73;109436;1264;22394;-76
2022/02/21 00:05:45;;;;;;;3.60;2.60;;;;;;;7.46;71.10;98703.95;109043;1257;21983;-76
2022/02/21 00:08:16;;;;;;;5.60;2.80;;;;;;;7.45;71.38;98702.70;110373;1256;21998;-76
2022/02/21 00:10:59;;;;;;;4.80;2.90;;;;;;;7.42;71.50;98691.11;110365;1256;24054;-76
2022/02/21 00:13:29;;;;;;;4.00;2.50;;;;;;;7.39;71.69;98683.23;110399;1257;24445;-78
2022/02/21 00:16:03;;;;;;;6.40;3.00;;;;;;;7.39;71.92;98679.60;110578;1244;22487;-75
2022/02/21 00:18:35;;;;;;;;;;;;;;;7.40;72.01;98673.35;111414;1244;22633;-76
2022/02/21 00:21:06;;;;;;;5.60;3.50;;;;;;;7.33;72.29;98665.84;111451;1243;21979;-76
2022/02/21 00:23:34;;;;;;;6.00;3.10;;;;;;;7.32;72.37;98659.58;111596;1238;22109;-76
2022/02/21 00:26:18;;;;;;;3.80;2.40;;;;;;;7.33;72.43;98650.09;111833;1238;21966;-76
2022/02/21 00:28:49;;;;;;;3.60;2.40;;;;;;;7.30;72.45;98642.90;111787;1238;23667;-76
2022/02/21 00:31:20;;;;;;;3.90;2.80;;;;;;;7.29;72.65;98636.76;112133;1238;22015;-76
2022/02/21 00:33:54;;;;;;;3.50;2.50;;;;;;;7.29;72.84;98631.98;111840;1238;21945;-75
2022/02/21 00:36:31;;;;;;;3.70;1.90;;;;;;;7.29;72.86;98628.59;112096;1237;21948;-76
2022/02/21 00:39:10;;;;;;;3.80;2.10;;;;;;;7.29;73.13;98618.81;111848;1238;21951;-76
2022/02/21 00:41:42;;;;;;;3.20;2.00;;;;;;;7.24;73.22;98612.17;111887;1238;23239;-76
2022/02/21 00:44:16;;;;;;;2.80;1.70;;;;;;;7.21;73.30;98607.60;112120;1238;24322;-76
2022/02/21 00:46:52;;;;;;;4.30;2.50;;;;;;;7.21;73.39;98603.39;111893;1238;21953;-75
2022/02/21 00:49:30;;;;;;;3.00;1.60;;;;;;;7.23;73.66;98604.90;111403;1244;22843;-76
2022/02/21 00:52:08;;;;;;;3.80;1.80;;;;;;;7.24;73.66;98596.55;111368;1244;21959;-76
2022/02/21 00:54:42;;;;;;;2.80;1.80;;;;;;;7.22;73.67;98591.19;110752;1251;21997;-76
2022/02/21 00:57:17;;;;;;;3.80;1.70;;;;;;;7.19;73.84;98581.42;110852;1251;21987;-77
2022/02/21 00:59:48;;;;;;;2.10;1.50;;;;;;;7.17;74.04;98574.83;110592;1251;23577;-76
2022/02/21 01:02:19;;;;;;;2.00;1.20;;;;;;;7.16;74.12;98564.41;110860;1251;22033;-76
2022/02/21 01:04:54;;;;;;;3.60;1.60;;;;;;;7.17;74.30;98562.47;110914;1251;21970;-78
2022/02/21 01:07:26;;;;;;;3.30;1.50;;;;;;;7.17;74.48;98562.34;111155;1244;21959;-77
2022/02/21 01:10:03;;;;;;;2.50;1.50;;;;;;;7.17;74.58;98553.66;111480;1245;23604;-77
2022/02/21 01:12:42;;;;;;;2.80;1.50;;;;;;;7.14;74.58;98547.81;111507;1238;22002;-76
2022/02/21 01:15:21;;;;;;;2.80;1.60;;;;;;;7.13;74.73;98545.38;111892;1238;22402;-77
2022/02/21 01:17:55;;;;;;;3.90;1.50;;;;;;;7.14;74.80;98539.61;111689;1242;23676;-78
2022/02/21 01:20:31;;;;;;;4.80;1.30;;;;;;;7.15;74.79;98530.89;111490;1244;22004;-78
2022/02/21 01:23:02;;;;;;;2.20;1.30;;;;;;;7.13;74.95;98520.09;111250;1244;22074;-77
2022/02/21 01:25:43;;;;;;;1.80;1.20;;;;;;;7.12;75.06;98509.27;111477;1241;21964;-76
2022/02/21 01:28:31;;;;;;;1.60;0.90;;;;;;;7.10;75.16;98508.80;111228;1244;23029;-77
2022/02/21 01:31:09;;;;;;;2.00;1.30;;;;;;;7.10;75.27;98498.14;111299;1244;22735;-77
2022/02/21 01:33:37;;;;;;;3.20;1.00;;;;;;;7.10;75.38;98494.30;111492;1244;22103;-77
2022/02/21 01:36:12;;;;;;;2.20;1.30;;;;;;;7.07;75.57;98487.78;111836;1238;21976;-77
2022/02/21 01:38:40;;;;;;;2.10;1.10;;;;;;;7.07;75.55;98488.09;111995;1238;22017;-77
2022/02/21 01:41:11;;;;;;;3.00;1.20;;;;;;;7.09;75.61;98478.13;111817;1238;22010;-77
2022/02/21 01:43:40;;;;;;;1.80;1.20;;;;;;;7.08;75.82;98471.02;112009;1238;23693;-76
2022/02/21 01:46:11;;;;;;;1.80;1.30;;;;;;;7.08;75.84;98471.58;111996;1238;22731;-77
2022/02/21 01:48:45;;;;;;;2.10;1.40;;;;;;;7.10;75.87;98474.67;111794;1238;23607;-76
2022/02/21 01:51:13;;;;;;;2.40;1.20;;;;;;;7.10;75.87;98466.75;111570;1238;24271;-77
2022/02/21 01:53:46;;;;;;;1.70;1.10;;;;;;;7.10;75.86;98457.33;111828;1238;21974;-76
2022/02/21 01:56:16;;;;;;;1.90;1.40;;;;;;;7.08;76.01;98448.63;111809;1238;21992;-76
2022/02/21 01:58:47;;;;;;;2.30;1.20;;;;;;;7.08;76.22;98448.64;111513;1244;21970;-76
2022/02/21 02:01:24;;;;;;;2.40;1.70;;;;;;;7.12;76.25;98443.23;111120;1247;23612;-76
2022/02/21 02:03:54;;;;;;;3.40;2.10;;;;;;;7.16;76.24;98432.42;110607;1251;21986;-76
2022/02/21 02:06:24;;;;;;;6.00;2.10;;;;;;;7.18;76.12;98416.98;110608;1254;22007;-77
2022/02/21 02:09:01;;;;;;;2.30;1.50;;;;;;;7.19;76.17;98406.16;110568;1251;22861;-76
2022/02/21 02:11:41;;;;;;;4.30;1.60;;;;;;;7.19;76.11;98401.68;110628;1250;22408;-76
2022/02/21 02:14:33;;;;;;;2.00;1.50;;;;;;;7.19;76.11;98391.78;110586;1254;21989;-76
2022/02/21 02:17:10;;;;;;;1.80;1.30;;;;;;;7.17;76.22;98380.01;110837;1247;21971;-76
2022/02/21 02:19:44;;;;;;;2.00;1.10;;;;;;;7.12;76.28;98364.85;111326;1244;21987;-76
2022/02/21 02:22:24;;;;;;;2.70;1.20;;;;;;;7.10;76.23;98361.92;110945;1250;22012;-76
2022/02/21 02:24:58;;;;;;;1.90;1.20;;;;;;;7.03;76.53;98343.67;111082;1248;22980;-76
2022/02/21 02:27:36;;;;;;;4.10;1.60;;;;;;;6.97;76.50;98333.05;110347;1254;21977;-77
2022/02/21 02:30:13;;;;;;;4.40;1.40;;;;;;;6.97;76.61;98326.63;110823;1251;23061;-76
2022/02/21 02:32:48;;;;;;;2.50;1.70;;;;;;;6.96;76.71;98319.89;110545;1253;21996;-76
2022/02/21 02:35:27;;;;;;;3.10;2.00;;;;;;;6.96;76.87;98309.50;110553;1254;21983;-76
2022/02/21 02:38:01;;;;;;;4.20;2.00;;;;;;;6.95;77.13;98300.10;110522;1254;21979;-77
2022/02/21 02:40:45;;;;;;;3.70;2.70;;;;;;;6.92;77.11;98294.42;110847;1247;23540;-77
2022/02/21 02:43:16;;;;;;;3.60;2.00;;;;;;;6.90;77.12;98290.45;110935;1249;21973;-76
2022/02/21 02:45:49;;;;;;;2.70;1.70;;;;;;;6.92;77.16;98283.33;110808;1247;22909;-76
2022/02/21 02:48:42;;;;;;;3.30;1.80;;;;;;;6.96;77.28;98273.77;110985;1247;22832;-76
2022/02/21 02:51:26;;;;;;;4.30;2.00;;;;;;;6.98;77.25;98267.55;111359;1242;22387;-76
2022/02/21 02:54:23;;;;;;;2.20;1.60;;;;;;;6.98;77.32;98264.36;111052;1248;23529;-76
2022/02/21 02:57:13;;;;;;;3.50;2.00;;;;;;;6.96;77.29;98260.27;110981;1247;22017;-76
2022/02/21 02:59:44;;;;;;;2.20;1.30;;;;;;;6.96;77.41;98253.90;110891;1248;23535;-75
2022/02/21 03:02:12;;;;;;;2.80;1.50;;;;;;;6.98;77.36;98250.70;110912;1247;24300;-75
2022/02/21 03:04:45;;;;;;;3.10;2.20;;;;;;;6.99;77.37;98243.73;111081;1244;22434;-76
2022/02/21 03:07:15;;;;;;;2.50;1.20;;;;;;;6.99;77.34;98240.99;110684;1250;23171;-75
2022/02/21 03:09:50;;;;;;;1.80;1.40;;;;;;;7.01;77.25;98238.22;110776;1251;21979;-75
2022/02/21 03:12:25;;;;;;;2.00;1.40;;;;;;;7.02;77.20;98239.30;110428;1254;23653;-76
2022/02/21 03:14:53;;;;;;;2.60;1.40;;;;;;;7.04;77.25;98234.52;110464;1254;23619;-76
2022/02/21 03:17:27;;;;;;;3.10;1.60;;;;;;;7.08;77.24;98226.03;110588;1253;23717;-76
2022/02/21 03:19:58;;;;;;;3.10;1.80;;;;;;;7.10;77.18;98216.95;110874;1250;23692;-76
2022/02/21 03:22:32;;;;;;;3.20;1.80;;;;;;;7.11;77.08;98219.89;110648;1247;22504;-76
2022/02/21 03:25:11;;;;;;;2.90;2.10;;;;;;;7.13;77.06;98222.55;111067;1242;23721;-76
2022/02/21 03:27:44;;;;;;;3.60;2.00;;;;;;;7.17;77.05;98214.75;111497;1244;22794;-76
2022/02/21 03:30:16;;;;;;;3.10;1.70;;;;;;;7.19;76.96;98210.80;111814;1238;23639;-76
2022/02/21 03:33:00;;;;;;;5.00;1.70;;;;;;;7.23;76.91;98197.72;111462;1244;23873;-76
2022/02/21 03:35:37;;;;;;;3.00;2.00;;;;;;;7.24;76.74;98191.46;111409;1244;21977;-76
2022/02/21 03:38:10;;;;;;;3.60;2.00;;;;;;;7.20;76.62;98187.13;111184;1244;23035;-76
2022/02/21 03:40:43;;;;;;;5.40;3.80;;;;;;;7.20;76.65;98186.77;111450;1244;21954;-76
2022/02/21 03:43:17;;;;;;;4.40;3.20;;;;;;;7.21;76.54;98185.14;111463;1244;23634;-76
2022/02/21 03:45:48;;;;;;;5.20;3.20;;;;;;;7.19;76.57;98177.86;111185;1245;21964;-76
2022/02/21 03:48:21;;;;;;;6.30;4.70;;;;;;;7.18;76.62;98169.95;111177;1244;21975;-76
2022/02/21 03:50:56;;;;;;;5.90;3.60;;;;;;;7.18;76.61;98157.36;111752;1238;23679;-76
2022/02/21 03:53:40;;;;;;;7.00;5.60;;;;;;;7.19;76.57;98162.85;111826;1238;23677;-76
2022/02/21 03:56:11;;;;;;;18.30;12.90;;;;;;;7.20;76.68;98161.48;111898;1238;21951;-76
2022/02/21 03:58:45;;;;;;;19.20;11.60;;;;;;;7.22;76.73;98147.66;111449;1245;22415;-76
2022/02/21 04:01:14;;;;;;;;;;;;;;;7.22;76.67;98134.77;110805;1241;23794;-76
2022/02/21 04:03:42;;;;;;;6.10;4.10;;;;;;;7.14;76.66;98121.35;111842;1241;21951;-75
2022/02/21 04:06:13;;;;;;;11.30;7.10;;;;;;;7.12;76.74;98123.09;111524;1241;22433;-75
2022/02/21 04:08:51;;;;;;;5.40;2.90;;;;;;;7.15;76.87;98117.35;111574;1241;23580;-75
2022/02/21 04:11:22;;;;;;;3.50;2.30;;;;;;;7.13;76.81;98111.09;111005;1247;22008;-76
2022/02/21 04:13:52;;;;;;;5.10;2.10;;;;;;;7.11;76.92;98104.10;111226;1247;24086;-76
2022/02/21 04:16:35;;;;;;;5.50;4.20;;;;;;;7.07;77.05;98095.86;111195;1242;23692;-76
2022/02/21 04:19:05;;;;;;;3.90;2.40;;;;;;;7.07;77.09;98094.63;111059;1242;23595;-77
2022/02/21 04:21:44;;;;;;;6.00;3.70;;;;;;;7.08;77.14;98088.91;111201;1247;24462;-76
2022/02/21 04:24:19;;;;;;;10.20;6.10;;;;;;;7.09;77.18;98084.42;111134;1247;22031;-76
2022/02/21 04:26:50;;;;;;;14.00;10.40;;;;;;;7.12;77.27;98083.18;111160;1247;22077;-77
2022/02/21 04:29:27;;;;;;;14.60;9.80;;;;;;;7.15;77.16;98083.22;111020;1244;23637;-77
2022/02/21 04:31:56;;;;;;;12.00;7.10;;;;;;;7.12;77.34;98079.06;111408;1244;21968;-77
2022/02/21 04:34:27;;;;;;;6.70;5.70;;;;;;;7.09;77.48;98073.44;111025;1244;21979;-77
2022/02/21 04:37:15;;;;;;;5.40;4.00;;;;;;;7.09;77.42;98065.05;111160;1241;21966;-77
2022/02/21 04:39:48;;;;;;;3.70;2.50;;;;;;;7.08;77.63;98055.67;111641;1238;22982;-77
2022/02/21 04:42:21;;;;;;;6.60;3.60;;;;;;;7.10;77.55;98055.67;112080;1238;22029;-77
2022/02/21 04:44:56;;;;;;;4.10;2.50;;;;;;;7.12;77.55;98053.28;111909;1238;21967;-77
2022/02/21 04:47:36;;;;;;;3.60;2.70;;;;;;;7.12;77.57;98048.20;111896;1236;21965;-77
2022/02/21 04:50:11;;;;;;;4.80;3.00;;;;;;;7.14;77.59;98045.17;112182;1238;22020;-77
2022/02/21 04:52:44;;;;;;;8.40;3.70;;;;;;;7.15;77.53;98035.57;112081;1236;21950;-77
2022/02/21 04:55:17;;;;;;;5.10;3.40;;;;;;;7.17;77.65;98030.95;112708;1231;23037;-77
2022/02/21 04:57:54;;;;;;;3.90;2.50;;;;;;;7.21;77.53;98030.42;112982;1231;21947;-78
2022/02/21 05:00:31;;;;;;;3.40;2.30;;;;;;;7.23;77.46;98027.48;112986;1231;22807;-76
2022/02/21 05:03:11;;;;;;;3.80;2.40;;;;;;;7.26;77.34;98028.27;112969;1231;21971;-76
2022/02/21 05:05:56;;;;;;;2.90;2.00;;;;;;;7.29;77.30;98028.65;112977;1231;21968;-76
2022/02/21 05:08:30;;;;;;;4.10;2.80;;;;;;;7.33;77.30;98031.10;112899;1231;23695;-77
2022/02/21 05:11:02;;;;;;;5.20;2.90;;;;;;;7.36;77.20;98025.61;113038;1231;21938;-77
2022/02/21 05:13:31;;;;;;;5.70;3.70;;;;;;;7.39;77.14;98018.52;113176;1231;22014;-77
2022/02/21 05:16:16;;;;;;;;;;;;;;;7.40;77.01;98012.59;113019;1231;21955;-76
2022/02/21 05:19:03;;;;;;;6.10;3.80;;;;;;;7.34;76.93;98012.52;113092;1231;23032;-77
2022/02/21 05:21:59;;;;;;;6.40;3.30;;;;;;;7.37;76.91;98002.85;112129;1236;21944;-77
2022/02/21 05:25:02;;;;;;;5.90;2.80;;;;;;;7.42;76.80;98001.42;112129;1237;23708;-76
2022/02/21 05:27:51;;;;;;;6.30;3.10;;;;;;;7.49;76.65;97998.05;111718;1241;21958;-76
2022/02/21 05:30:30;;;;;;;6.10;2.40;;;;;;;7.53;76.55;98001.04;111608;1241;22457;-77
2022/02/21 05:33:39;;;;;;;8.60;4.40;;;;;;;7.57;76.28;97991.01;111584;1241;23868;-76
2022/02/21 05:36:09;;;;;;;6.00;4.00;;;;;;;7.62;76.11;97990.80;111760;1241;23854;-75
2022/02/21 05:38:38;;;;;;;9.60;5.70;;;;;;;7.65;75.93;97987.70;111155;1245;21970;-75
2022/02/21 05:41:07;;;;;;;7.80;3.90;;;;;;;7.70;75.81;97992.09;111420;1241;23088;-76
2022/02/21 05:43:39;;;;;;;4.10;2.70;;;;;;;7.74;75.48;97989.18;111465;1241;22262;-75
2022/02/21 05:46:54;;;;;;;6.30;3.90;;;;;;;7.74;75.30;97988.09;111049;1247;21984;-75
2022/02/21 05:49:38;;;;;;;3.20;2.00;;;;;;;7.74;75.14;97976.98;111174;1246;22840;-76
2022/02/21 05:52:17;;;;;;;5.00;2.40;;;;;;;7.74;75.02;97979.16;111197;1247;24440;-75
2022/02/21 05:54:47;;;;;;;4.40;2.30;;;;;;;7.78;75.05;97984.77;110549;1253;21991;-75
2022/02/21 05:57:16;;;;;;;2.90;1.80;;;;;;;7.83;74.87;97985.67;110578;1253;23844;-75
2022/02/21 05:59:56;;;;;;;2.90;1.60;;;;;;;7.86;74.70;97984.94;110916;1251;21971;-75
2022/02/21 06:02:38;;;;;;;3.50;1.60;;;;;;;7.87;74.40;97977.92;110826;1248;22018;-76
2022/02/21 06:05:11;;;;;;;6.90;2.30;;;;;;;7.87;74.20;97975.59;111607;1241;21970;-75
2022/02/21 06:08:02;;;;;;;8.30;2.60;;;;;;;7.89;73.98;97973.60;111656;1241;21976;-73
2022/02/21 06:10:40;;;;;;;3.80;1.90;;;;;;;7.92;73.94;97970.72;111422;1241;22414;-75
2022/02/21 06:13:22;;;;;;;3.90;2.30;;;;;;;7.95;73.69;97960.19;111656;1242;22752;-78
2022/02/21 06:16:06;;;;;;;6.70;2.40;;;;;;;7.95;73.52;97952.51;111699;1241;24530;-76
2022/02/21 06:18:41;;;;;;;3.70;2.30;;;;;;;7.98;73.51;97960.78;111669;1238;23805;-78
2022/02/21 06:21:12;;;;;;;4.50;2.60;;;;;;;8.02;73.25;97960.19;112315;1238;23027;-75
2022/02/21 06:23:45;;;;;;;8.00;3.20;;;;;;;8.04;72.92;97966.46;112009;1231;22824;-77
2022/02/21 06:26:46;;;;;;;4.20;2.60;;;;;;;8.05;72.81;97978.52;112356;1236;21974;-77
2022/02/21 06:29:26;;;;;;;5.60;3.50;;;;;;;8.07;72.80;97975.27;111820;1240;22119;-75
2022/02/21 06:32:29;;;;;;;3.90;2.50;;;;;;;8.09;72.62;97981.04;111763;1241;21954;-77
2022/02/21 06:35:08;;;;;;;7.20;3.00;;;;;;;8.10;72.50;97983.50;111954;1241;24298;-77
2022/02/21 06:37:40;;;;;;;;;;;;;;;8.13;72.43;97987.02;111702;1241;24266;-77
2022/02/21 06:40:15;;;;;;;8.70;4.00;;;;;;;8.10;72.50;97999.40;111985;1241;21973;-76
2022/02/21 06:42:48;;;;;;;;;;;;;;;8.12;72.52;98005.94;111831;1241;21956;-77
2022/02/21 06:45:17;;;;;;;7.40;3.70;;;;;;;8.11;72.47;98006.77;112040;1238;23215;-76
2022/02/21 06:47:53;;;;;;;6.40;3.60;;;;;;;8.15;72.53;98011.31;112431;1232;21952;-76
2022/02/21 06:50:24;;;;;;;6.00;3.50;;;;;;;8.22;72.35;98008.04;113399;1229;23765;-77
2022/02/21 06:52:53;;;;;;;8.50;3.80;;;;;;;8.30;72.36;98009.35;113094;1231;22033;-76
2022/02/21 06:55:23;;;;;;;9.40;5.10;;;;;;;8.38;72.24;98010.04;113047;1231;23660;-76
2022/02/21 06:57:53;;;;;;;6.90;3.50;;;;;;;8.45;71.86;98016.95;113094;1231;22404;-77
2022/02/21 07:00:23;;;;;;;7.00;3.40;;;;;;;8.52;71.63;98017.64;113136;1231;22401;-77
2022/02/21 07:02:53;;;;;;;6.20;4.00;;;;;;;8.55;71.34;98011.61;112252;1236;22026;-77
2022/02/21 07:05:24;;;;;;;8.40;4.30;;;;;;;8.58;71.04;98015.77;111636;1241;24279;-77
2022/02/21 07:07:52;;;;;;;8.30;5.50;;;;;;;8.62;70.98;98020.61;111589;1241;23033;-76
2022/02/21 07:10:19;;;;;;;8.70;5.20;;;;;;;8.69;71.05;98022.83;111243;1245;21988;-77
2022/02/21 07:12:51;;;;;;;13.40;4.60;;;;;;;8.76;70.72;98026.06;110954;1250;23138;-77
2022/02/21 07:15:19;;;;;;;9.50;5.30;;;;;;;8.81;70.27;98029.95;110790;1250;21969;-77
2022/02/21 07:17:49;;;;;;;9.50;5.70;;;;;;;8.83;70.02;98037.89;110767;1251;22030;-77
2022/02/21 07:20:18;;;;;;;10.30;6.30;;;;;;;8.87;69.86;98038.38;111054;1244;22156;-76
2022/02/21 07:22:51;;;;;;;8.30;5.20;;;;;;;8.92;69.56;98039.05;111290;1245;22011;-77
2022/02/21 07:25:29;;;;;;;7.20;5.20;;;;;;;8.95;69.23;98044.13;111595;1244;22152;-76
2022/02/21 07:28:04;;;;;;;9.40;6.60;;;;;;;8.96;69.05;98045.05;111398;1241;22415;-77
2022/02/21 07:30:37;;;;;;;9.20;6.40;;;;;;;8.98;68.99;98036.84;111638;1241;21963;-77
2022/02/21 07:33:05;;;;;;;8.00;5.50;;;;;;;9.01;68.89;98039.75;111614;1241;22103;-77
2022/02/21 07:35:43;;;;;;;6.30;4.60;;;;;;;9.04;68.85;98049.88;111617;1241;21967;-77
2022/02/21 07:38:22;;;;;;;7.60;4.10;;;;;;;9.07;68.52;98055.58;111863;1236;23097;-75
2022/02/21 07:40:54;;;;;;;6.80;3.30;;;;;;;9.10;68.40;98068.25;112571;1232;21962;-76
2022/02/21 07:43:23;;;;;;;6.20;3.20;;;;;;;9.11;68.25;98071.71;112603;1232;22545;-76
2022/02/21 07:45:51;;;;;;;5.30;3.60;;;;;;;9.14;68.15;98077.48;111834;1238;23108;-76
2022/02/21 07:48:19;;;;;;;4.80;3.30;;;;;;;9.16;67.84;98072.45;112103;1238;21962;-77
2022/02/21 07:50:55;;;;;;;4.30;2.90;;;;;;;9.17;67.56;98064.21;111537;1244;21971;-76
2022/02/21 07:53:30;;;;;;;6.30;4.00;;;;;;;9.16;67.38;98076.50;110734;1250;21986;-76
2022/02/21 07:55:59;;;;;;;5.40;2.70;;;;;;;9.14;67.15;98085.23;111040;1250;22021;-77
2022/02/21 07:58:37;;;;;;;10.20;3.50;;;;;;;9.13;67.00;98088.15;110729;1251;22013;-81
2022/02/21 08:01:58;;;;;;;4.30;3.40;;;;;;;9.18;67.05;98088.20;110942;1251;21989;-78
2022/02/21 08:04:27;;;;;;;6.20;2.80;;;;;;;9.22;66.62;98091.29;111217;1242;22996;-77
2022/02/21 08:07:07;;;;;;;7.80;3.50;;;;;;;9.23;66.13;98092.58;111586;1242;22089;-77
2022/02/21 08:09:42;;;;;;;6.50;4.10;;;;;;;9.24;65.96;98099.63;111808;1236;22357;-77
2022/02/21 08:12:52;;;;;;;6.40;3.90;;;;;;;9.25;65.85;98107.89;112285;1231;21953;-77
2022/02/21 08:15:44;;;;;;;4.20;3.00;;;;;;;9.23;65.56;98118.89;111914;1239;22300;-77
2022/02/21 08:18:14;;;;;;;4.40;2.70;;;;;;;9.19;65.29;98117.66;111963;1239;24265;-77
2022/02/21 08:20:45;;;;;;;7.00;4.90;;;;;;;9.15;65.14;98126.36;111634;1239;23663;-77
2022/02/21 08:23:24;;;;;;;7.60;5.40;;;;;;;9.12;64.96;98142.91;111587;1244;21985;-79
2022/02/21 08:26:36;;;;;;;7.90;4.90;;;;;;;9.09;64.71;98147.30;111455;1242;22830;-79
2022/02/21 08:29:29;;;;;;;7.50;3.70;;;;;;;9.07;64.69;98154.23;110739;1251;22005;-79
2022/02/21 08:32:30;;;;;;;5.60;3.00;;;;;;;9.08;64.66;98150.15;110871;1251;21987;-78
2022/02/21 08:35:23;;;;;;;5.10;3.70;;;;;;;9.09;64.52;98150.17;110554;1254;23037;-78
2022/02/21 08:38:07;;;;;;;5.00;3.40;;;;;;;9.11;64.26;98147.13;110490;1254;23536;-78
2022/02/21 08:41:17;;;;;;;;;;;;;;;;;;;;;
2022/02/21 08:44:11;;;;;;;4.50;2.50;;;;;;;9.07;63.29;98154.45;110307;1256;21997;-78
2022/02/21 08:46:47;;;;;;;4.60;3.10;;;;;;;9.04;62.89;98160.13;110151;1257;21989;-78
2022/02/21 08:49:49;;;;;;;4.40;2.40;;;;;;;9.05;62.75;98162.67;110032;1257;25237;-77
2022/02/21 08:52:41;;;;;;;;;;;;;;;;;;;;;
2022/02/21 08:55:59;;;;;;;4.60;2.60;;;;;;;9.02;61.66;98179.91;110900;1247;22488;-78
2022/02/21 08:59:04;;;;;;;7.50;4.20;;;;;;;8.92;61.35;98181.02;110988;1248;21990;-78
2022/02/21 09:01:54;;;;;;;5.70;2.10;;;;;;;8.86;61.19;98179.96;110824;1247;21977;-79
2022/02/21 09:04:45;;;;;;;3.60;2.20;;;;;;;8.81;61.07;98172.73;111011;1247;21959;-79
2022/02/21 09:07:34;;;;;;;3.40;2.40;;;;;;;8.74;60.67;98169.11;110989;1245;22887;-79
2022/02/21 09:10:18;;;;;;;3.10;2.30;;;;;;;8.67;60.59;98167.23;109352;1245;2768102;-79
2022/02/21 09:13:05;;;;;;;3.80;2.10;;;;;;;8.67;60.45;98177.48;111443;1245;22001;-79
2022/02/21 09:15:54;;;;;;;4.50;2.50;;;;;;;8.71;60.53;98180.41;111160;1245;21954;-79
2022/02/21 09:18:40;;;;;;;5.80;2.50;;;;;;;8.80;60.44;98197.11;111535;1244;21944;-79
2022/02/21 09:21:36;;;;;;;3.50;2.50;;;;;;;8.83;60.00;98206.42;111643;1239;21916;-78
2022/02/21 09:24:27;;;;;;;3.60;2.60;;;;;;;8.79;59.63;98211.34;112160;1238;22017;-78
2022/02/21 09:27:34;;;;;;;4.70;1.50;;;;;;;8.64;59.07;98278.44;111854;1242;23804;-79
2022/02/21 09:30:18;;;;;;;2.10;1.50;;;;;;;8.03;58.47;98282.30;111004;1250;23604;-78
2022/02/21 09:33:05;;;;;;;4.70;1.80;;;;;;;7.66;59.48;98285.41;111652;1245;21977;-78
2022/02/21 09:35:51;;;;;;;3.30;2.30;;;;;;;7.44;60.62;98286.95;111243;1247;21970;-79
2022/02/21 09:38:33;;;;;;;4.80;2.40;;;;;;;7.29;61.77;98280.48;111040;1253;23697;-80
2022/02/21 09:42:20;;;;;;;4.70;2.50;;;;;;;7.14;62.46;98268.95;111220;1253;23623;-80
2022/02/21 09:46:39;;;;;;;;;;;;;;;;;;;;;
2022/02/21 09:49:56;;;;;;;2.90;1.50;;;;;;;6.90;63.57;98292.35;109895;1262;23096;-80
2022/02/21 09:52:50;;;;;;;4.30;2.10;;;;;;;6.86;63.54;98305.09;109443;1262;21974;-80
2022/02/21 09:55:53;;;;;;;8.00;4.10;;;;;;;6.85;63.41;98319.82;110079;1262;22000;-80
2022/02/21 09:59:15;;;;;;;5.20;3.80;;;;;;;6.80;63.06;98316.58;110648;1253;23033;-79
2022/02/21 10:02:58;;;;;;;6.70;3.20;;;;;;;6.74;62.66;98315.73;110962;1254;23072;-80
2022/02/21 10:05:53;;;;;;;6.80;3.20;;;;;;;6.71;62.44;98306.54;110863;1254;21996;-79
2022/02/21 10:08:29;;;;;;;6.30;3.50;;;;;;;6.71;62.29;98318.20;111133;1245;21957;-80
2022/02/21 10:11:47;;;;;;;6.10;3.50;;;;;;;6.72;61.75;98329.80;111553;1245;21964;-81
2022/02/21 10:14:23;;;;;;;10.00;5.40;;;;;;;6.73;61.33;98342.13;111692;1244;21975;-81
2022/02/21 10:17:05;;;;;;;11.90;6.70;;;;;;;6.75;61.27;98352.54;111635;1244;22012;-80
2022/02/21 10:19:49;;;;;;;8.40;5.40;;;;;;;6.79;61.25;98359.19;111788;1244;23099;-80
2022/02/21 10:23:07;;;;;;;7.40;3.50;;;;;;;6.83;61.00;98376.86;111689;1244;23752;-80
2022/02/21 10:26:07;;;;;;;10.00;3.60;;;;;;;6.78;60.39;98386.60;111676;1241;21992;-80
2022/02/21 10:29:11;;;;;;;9.40;4.40;;;;;;;6.64;60.08;98390.94;111900;1241;22330;-79
2022/02/21 10:31:54;;;;;;;10.30;5.90;;;;;;;6.55;60.12;98395.72;111966;1239;22015;-79
2022/02/21 10:34:36;;;;;;;9.70;5.50;;;;;;;6.52;60.06;98401.94;112039;1241;22012;-79
2022/02/21 10:37:32;;;;;;;13.20;6.30;;;;;;;6.49;59.99;98393.77;111768;1239;21959;-79
2022/02/21 10:40:46;;;;;;;13.90;7.50;;;;;;;6.46;60.09;98399.52;111952;1239;21977;-79
2022/02/21 10:43:45;;;;;;;16.50;7.90;;;;;;;6.46;60.11;98396.98;112650;1238;21970;-80
2022/02/21 10:46:30;;;;;;;12.60;5.90;;;;;;;6.48;60.01;98387.83;112089;1239;22018;-78
2022/02/21 10:50:25;;;;;;;11.80;6.20;;;;;;;6.48;59.97;98380.13;111725;1245;22859;-80
2022/02/21 10:53:37;;;;;;;12.70;5.30;;;;;;;6.52;60.19;98370.20;111676;1246;23029;-79
2022/02/21 10:56:13;;;;;;;11.10;5.70;;;;;;;6.54;60.12;98381.83;111488;1247;21941;-80
2022/02/21 10:58:58;;;;;;;14.10;7.10;;;;;;;6.51;59.85;98380.48;111659;1246;21966;-80
2022/02/21 11:01:35;;;;;;;11.00;5.00;;;;;;;6.50;59.83;98385.02;111568;1247;22021;-79
2022/02/21 11:04:06;;;;;;;12.50;6.10;;;;;;;6.65;60.51;98379.81;111476;1248;23596;-79
2022/02/21 11:06:35;;;;;;;10.80;6.20;;;;;;;7.01;60.88;98380.05;111603;1245;21969;-80
2022/02/21 11:09:07;;;;;;;9.70;5.00;;;;;;;7.56;61.32;98390.41;111807;1247;22081;-80
2022/02/21 11:11:50;;;;;;;10.30;6.60;;;;;;;8.23;60.99;98403.64;111751;1247;22080;-79
2022/02/21 11:14:27;;;;;;;10.80;5.10;;;;;;;8.75;58.83;98425.60;111995;1239;23579;-79
2022/02/21 11:17:01;;;;;;;10.80;4.90;;;;;;;8.90;56.61;98439.77;111437;1247;22036;-79
2022/02/21 11:19:42;;;;;;;8.30;4.40;;;;;;;8.71;55.26;98446.26;111480;1239;22088;-79
2022/02/21 11:22:19;;;;;;;6.10;3.80;;;;;;;8.49;54.92;98442.05;112307;1238;21994;-79
2022/02/21 11:25:44;;;;;;;9.20;3.60;;;;;;;8.30;55.23;98455.15;112340;1238;21971;-80
2022/02/21 11:28:27;;;;;;;8.00;4.50;;;;;;;8.06;55.20;98461.61;111366;1244;22993;-77
2022/02/21 11:31:08;;;;;;;6.60;4.20;;;;;;;7.84;55.30;98463.44;111980;1242;23578;-78
2022/02/21 11:35:19;;;;;;;12.70;7.20;;;;;;;7.61;55.50;98467.74;111707;1241;23685;-78
2022/02/21 11:37:49;;;;;;;6.90;3.80;;;;;;;7.48;55.89;98469.20;111662;1242;22878;-79
2022/02/21 11:40:26;;;;;;;8.20;4.00;;;;;;;7.37;55.85;98478.48;111360;1242;21918;-78
2022/02/21 11:42:59;;;;;;;9.90;5.60;;;;;;;7.30;55.99;98484.05;112070;1238;21956;-79
2022/02/21 11:45:41;;;;;;;17.70;6.80;;;;;;;7.28;56.27;98486.35;112160;1239;22727;-79
2022/02/21 11:48:14;;;;;;;8.40;3.80;;;;;;;7.26;56.03;98490.61;112108;1236;21962;-81
2022/02/21 11:51:20;;;;;;;8.50;4.90;;;;;;;7.21;56.01;98483.66;112132;1236;21906;-79
2022/02/21 11:55:02;;;;;;;9.90;4.40;;;;;;;7.23;56.37;98478.42;111851;1241;22467;-81
2022/02/21 11:58:14;;;;;;;7.30;3.20;;;;;;;7.26;56.16;98477.73;110711;1257;23020;-81
2022/02/21 12:01:08;;;;;;;5.80;3.20;;;;;;;7.26;55.96;98474.61;110852;1257;22407;-79
2022/02/21 12:04:26;;;;;;;5.80;2.50;;;;;;;7.26;55.99;98474.16;109924;1259;22348;-81
2022/02/21 12:07:39;;;;;;;9.10;4.30;;;;;;;7.25;55.79;98471.73;110367;1259;22025;-80
2022/02/21 12:10:25;;;;;;;5.10;3.10;;;;;;;7.26;55.71;98472.84;110216;1259;22764;-82
2022/02/21 12:13:26;;;;;;;;;;;;;;;;;;;;;
2022/02/21 12:17:12;;;;;;;7.70;3.50;;;;;;;7.31;55.75;98472.55;110649;1255;22082;-79
2022/02/21 12:21:16;;;;;;;;;;;;;;;;;;;;;
2022/02/21 12:25:41;;;;;;;;;;;;;;;;;;;;;
2022/02/21 12:29:28;;;;;;;7.10;3.10;;;;;;;7.35;55.36;98501.79;111822;1241;23021;-79
2022/02/21 12:36:51;;;;;;;5.70;2.50;;;;;;;7.20;54.51;98523.53;111136;1251;23693;-80
2022/02/21 12:41:19;;;;;;;;;;;;;;;;;;;;;
2022/02/21 12:44:48;;;;;;;;;;;;;;;;;;;;;
2022/02/21 12:48:38;;;;;;;;;;;;;;;;;;;;;
2022/02/21 12:52:32;;;;;;;7.00;4.00;;;;;;;6.77;55.18;98559.56;110951;1257;22185;-80
2022/02/21 12:56:36;;;;;;;6.00;3.70;;;;;;;6.69;55.62;98574.51;110302;1262;21991;-79
2022/02/21 13:00:19;;;;;;;;;;;;;;;;;;;;;
2022/02/21 13:04:01;;;;;;;;;;;;;;;;;;;;;
2022/02/21 13:07:15;;;;;;;;;;;;;;;;;;;;;
2022/02/21 13:11:25;;;;;;;10.10;5.10;;;;;;;6.31;59.48;98540.17;109455;1270;22767;-80
2022/02/21 13:15:15;;;;;;;;;;;;;;;;;;;;;
2022/02/21 13:32:54;;;;;;;;;;;;;;;;;;;;;
2022/02/21 13:36:55;;;;;;;;;;;;;;;;;;;;;
2022/02/21 13:40:50;;;;;;;;;;;;;;;;;;;;;
2022/02/21 13:45:45;;;;;;;;;;;;;;;;;;;;;